createdAt,value
2023-01-10T00:00:46.105Z,6.40
2023-01-10T00:03:13.973Z,6.30
2023-01-10T00:05:42.128Z,6.30
2023-01-10T00:08:11.854Z,6.40
2023-01-10T00:10:40.956Z,6.40
2023-01-10T00:13:26.439Z,6.30
2023-01-10T00:15:56.017Z,6.30
2023-01-10T00:18:24.167Z,6.30
2023-01-10T00:20:51.919Z,6.30
2023-01-10T00:23:23.286Z,6.20
2023-01-10T00:25:52.480Z,6.20
2023-01-10T00:28:20.627Z,6.30
2023-01-10T00:30:54.845Z,6.20
2023-01-10T00:33:23.195Z,6.30
2023-01-10T00:35:51.102Z,6.10
2023-01-10T00:38:19.226Z,6.20
2023-01-10T00:40:47.647Z,6.20
2023-01-10T00:43:34.089Z,6.30
2023-01-10T00:46:02.759Z,6.40
2023-01-10T00:48:30.781Z,6.40
2023-01-10T00:50:58.519Z,6.30
2023-01-10T00:53:27.166Z,6.40
2023-01-10T00:55:55.317Z,6.30
2023-01-10T00:58:24.547Z,6.40
2023-01-10T01:00:52.361Z,6.40
2023-01-10T01:03:21.683Z,6.60
2023-01-10T01:05:49.605Z,6.40
2023-01-10T01:08:19.120Z,6.40
2023-01-10T01:10:47.252Z,6.40
2023-01-10T01:13:17.886Z,6.20
2023-01-10T01:15:47.181Z,6.30
2023-01-10T01:18:16.892Z,6.20
2023-01-10T01:20:45.757Z,6.40
2023-01-10T01:23:14.124Z,6.50
2023-01-10T01:25:42.318Z,6.50
2023-01-10T01:28:11.085Z,6.40
2023-01-10T01:30:38.891Z,6.40
2023-01-10T01:33:08.056Z,6.50
2023-01-10T01:35:35.911Z,6.30
2023-01-10T01:38:03.665Z,6.30
2023-01-10T01:40:31.502Z,6.30
2023-01-10T01:42:59.231Z,6.20
2023-01-10T01:45:39.120Z,6.30
2023-01-10T01:48:20.809Z,6.30
2023-01-10T01:50:52.993Z,6.30
2023-01-10T01:53:27.024Z,6.30
2023-01-10T01:55:57.288Z,6.30
2023-01-10T01:58:29.589Z,6.40
2023-01-10T02:00:58.472Z,6.40
2023-01-10T02:03:28.406Z,6.30
2023-01-10T02:05:56.701Z,6.50
2023-01-10T02:08:24.585Z,6.20
2023-01-10T02:10:57.140Z,6.20
2023-01-10T02:13:27.593Z,6.40
2023-01-10T02:15:55.516Z,6.40
2023-01-10T02:18:24.408Z,6.30
2023-01-10T02:21:24.937Z,6.30
2023-01-10T02:24:21.455Z,6.30
2023-01-10T02:27:08.705Z,6.20
2023-01-10T02:30:03.338Z,6.30
2023-01-10T02:32:53.437Z,6.10
2023-01-10T02:35:51.860Z,6.40
2023-01-10T02:38:30.848Z,6.20
2023-01-10T02:41:05.852Z,6.20
2023-01-10T02:43:38.465Z,6.20
2023-01-10T02:46:11.104Z,6.20
2023-01-10T02:48:40.204Z,6.20
2023-01-10T02:51:18.152Z,6.20
2023-01-10T02:53:49.806Z,6.20
2023-01-10T02:56:32.423Z,6.10
2023-01-10T02:59:30.858Z,6.20
2023-01-10T03:02:03.929Z,6.20
2023-01-10T03:04:45.437Z,6.20
2023-01-10T03:07:22.189Z,6.20
2023-01-10T03:09:57.101Z,6.20
2023-01-10T03:12:29.793Z,6.20
2023-01-10T03:14:59.298Z,6.10
2023-01-10T03:17:29.844Z,6.10
2023-01-10T03:20:02.796Z,6.00
2023-01-10T03:22:32.960Z,6.10
2023-01-10T03:25:02.013Z,6.20
2023-01-10T03:27:38.245Z,6.10
2023-01-10T03:30:14.013Z,6.10
2023-01-10T03:32:43.495Z,6.10
2023-01-10T03:35:15.337Z,6.00
2023-01-10T03:37:51.106Z,6.10
2023-01-10T03:40:24.153Z,6.10
2023-01-10T03:43:16.613Z,6.10
2023-01-10T03:45:49.768Z,6.00
2023-01-10T03:48:19.628Z,6.10
2023-01-10T03:50:50.186Z,6.10
2023-01-10T03:53:18.312Z,6.20
2023-01-10T03:55:46.739Z,6.10
2023-01-10T03:58:14.494Z,6.20
2023-01-10T04:00:42.259Z,6.10
2023-01-10T04:03:11.059Z,6.10
2023-01-10T04:05:38.848Z,6.00
2023-01-10T04:08:08.033Z,6.10
2023-01-10T04:10:37.705Z,6.00
2023-01-10T04:13:06.071Z,6.10
2023-01-10T04:15:34.318Z,6.10
2023-01-10T04:18:02.050Z,6.00
2023-01-10T04:20:29.837Z,6.10
2023-01-10T04:22:57.590Z,6.00
2023-01-10T04:25:26.734Z,6.00
2023-01-10T04:27:54.495Z,6.00
2023-01-10T04:30:22.265Z,6.00
2023-01-10T04:32:50.000Z,6.00
2023-01-10T04:35:17.880Z,6.20
2023-01-10T04:37:45.701Z,6.00
2023-01-10T04:40:17.063Z,6.10
2023-01-10T04:42:46.192Z,6.20
2023-01-10T04:45:17.560Z,6.10
2023-01-10T04:47:49.661Z,6.10
2023-01-10T04:50:17.636Z,6.20
2023-01-10T04:52:45.401Z,6.30
2023-01-10T04:55:13.153Z,6.10
2023-01-10T04:57:40.902Z,6.10
2023-01-10T05:00:12.068Z,6.10
2023-01-10T05:02:43.960Z,6.10
2023-01-10T05:05:12.159Z,6.10
2023-01-10T05:07:40.110Z,6.10
2023-01-10T05:10:09.383Z,6.00
2023-01-10T05:12:37.203Z,6.20
2023-01-10T05:15:05.500Z,6.10
2023-01-10T05:17:34.718Z,6.10
2023-01-10T05:20:02.502Z,6.20
2023-01-10T05:22:30.289Z,6.20
2023-01-10T05:24:58.035Z,6.30
2023-01-10T05:27:25.806Z,6.20
2023-01-10T05:29:53.595Z,6.20
2023-01-10T05:32:21.377Z,6.00
2023-01-10T05:34:50.451Z,6.10
2023-01-10T05:37:18.238Z,6.00
2023-01-10T05:39:45.977Z,6.10
2023-01-10T05:42:13.709Z,6.10
2023-01-10T05:44:41.468Z,6.00
2023-01-10T05:47:09.247Z,6.20
2023-01-10T05:49:37.010Z,6.10
2023-01-10T05:52:06.495Z,6.10
2023-01-10T05:54:34.241Z,6.10
2023-01-10T05:57:02.045Z,6.10
2023-01-10T05:59:29.834Z,6.20
2023-01-10T06:01:57.650Z,6.10
2023-01-10T06:04:26.587Z,6.10
2023-01-10T06:06:54.368Z,6.10
2023-01-10T06:09:23.446Z,6.10
2023-01-10T06:11:51.236Z,6.10
2023-01-10T06:14:19.536Z,6.00
2023-01-10T06:16:47.418Z,6.10
2023-01-10T06:19:15.257Z,6.00
2023-01-10T06:21:43.320Z,6.10
2023-01-10T06:24:11.806Z,5.90
2023-01-10T06:26:40.914Z,6.10
2023-01-10T06:29:08.676Z,6.00
2023-01-10T06:31:36.488Z,6.10
2023-01-10T06:34:04.357Z,6.00
2023-01-10T06:36:32.120Z,6.00
2023-01-10T06:38:59.868Z,6.00
2023-01-10T06:41:27.602Z,5.90
2023-01-10T06:43:56.719Z,6.00
2023-01-10T06:46:24.554Z,6.10
2023-01-10T06:48:52.379Z,6.00
2023-01-10T06:51:20.501Z,6.00
2023-01-10T06:53:48.435Z,6.00
2023-01-10T06:56:16.200Z,6.10
2023-01-10T06:58:43.955Z,6.00
2023-01-10T07:01:18.204Z,6.00
2023-01-10T07:03:46.228Z,6.00
2023-01-10T07:06:14.209Z,6.10
2023-01-10T07:08:45.003Z,6.00
2023-01-10T07:11:14.667Z,6.00
2023-01-10T07:13:42.509Z,6.10
2023-01-10T07:16:11.829Z,6.10
2023-01-10T07:18:43.117Z,6.10
2023-01-10T07:21:11.427Z,6.10
2023-01-10T07:23:39.456Z,6.00
2023-01-10T07:26:09.098Z,6.10
2023-01-10T07:28:37.058Z,5.80
2023-01-10T07:31:06.651Z,6.00
2023-01-10T07:33:34.647Z,6.00
2023-01-10T07:36:05.281Z,6.10
2023-01-10T07:38:33.061Z,5.90
2023-01-10T07:41:03.386Z,5.90
2023-01-10T07:43:31.350Z,5.70
2023-01-10T07:45:59.796Z,5.90
2023-01-10T07:48:28.085Z,6.00
2023-01-10T07:50:57.295Z,5.90
2023-01-10T07:53:26.898Z,6.00
2023-01-10T07:55:54.972Z,5.80
2023-01-10T07:58:22.726Z,6.00
2023-01-10T08:00:51.046Z,5.80
2023-01-10T08:03:19.329Z,5.70
2023-01-10T08:05:47.193Z,5.80
2023-01-10T08:08:16.731Z,5.80
2023-01-10T08:10:45.835Z,5.80
2023-01-10T08:13:18.696Z,5.80
2023-01-10T08:15:50.130Z,5.80
2023-01-10T08:18:18.019Z,5.70
2023-01-10T08:20:47.108Z,5.80
2023-01-10T08:23:15.444Z,5.90
2023-01-10T08:25:44.752Z,5.90
2023-01-10T08:28:12.848Z,5.90
2023-01-10T08:30:40.952Z,5.90
2023-01-10T08:33:10.698Z,6.00
2023-01-10T08:35:39.202Z,5.70
2023-01-10T08:38:07.040Z,5.90
2023-01-10T08:40:34.824Z,5.90
2023-01-10T08:43:06.752Z,6.00
2023-01-10T08:45:35.090Z,6.00
2023-01-10T08:48:03.379Z,6.00
2023-01-10T08:50:31.925Z,5.90
2023-01-10T08:53:00.233Z,5.90
2023-01-10T08:55:28.901Z,6.00
2023-01-10T08:57:56.707Z,6.00
2023-01-10T09:00:26.019Z,6.20
2023-01-10T09:02:54.021Z,6.20
2023-01-10T09:05:27.486Z,6.10
2023-01-10T09:08:00.624Z,6.10
2023-01-10T09:10:28.857Z,6.10
2023-01-10T09:12:59.721Z,6.00
2023-01-10T09:15:30.889Z,5.90
2023-01-10T09:17:59.949Z,6.10
2023-01-10T09:20:29.281Z,6.10
2023-01-10T09:22:58.348Z,6.00
2023-01-10T09:25:26.750Z,6.10
2023-01-10T09:27:59.150Z,6.10
2023-01-10T09:30:28.793Z,5.90
2023-01-10T09:32:57.640Z,6.00
2023-01-10T09:35:26.982Z,6.00
2023-01-10T09:37:55.942Z,6.20
2023-01-10T09:40:34.292Z,6.10
2023-01-10T09:43:11.209Z,5.90
2023-01-10T09:45:46.002Z,6.10
2023-01-10T09:48:21.642Z,6.10
2023-01-10T09:51:05.855Z,6.00
2023-01-10T09:53:37.602Z,6.00
2023-01-10T09:56:06.194Z,6.00
2023-01-10T09:58:38.589Z,6.20
2023-01-10T10:01:10.831Z,6.10
2023-01-10T10:03:42.093Z,6.00
2023-01-10T10:06:12.789Z,6.00
2023-01-10T10:08:41.319Z,6.00
2023-01-10T10:11:27.550Z,6.10
2023-01-10T10:14:03.517Z,6.10
2023-01-10T10:16:45.322Z,6.20
2023-01-10T10:19:19.991Z,6.10
2023-01-10T10:21:59.744Z,6.10
2023-01-10T10:24:45.944Z,6.00
2023-01-10T10:27:22.471Z,6.20
2023-01-10T10:30:04.591Z,6.20
2023-01-10T10:32:50.557Z,6.10
2023-01-10T10:35:24.408Z,6.30
2023-01-10T10:37:56.082Z,6.10
2023-01-10T10:40:25.870Z,6.20
2023-01-10T10:42:55.940Z,6.50
2023-01-10T10:45:30.174Z,6.20
2023-01-10T10:48:04.210Z,6.20
2023-01-10T10:50:34.638Z,6.30
2023-01-10T10:53:04.141Z,6.20
2023-01-10T10:55:35.309Z,6.30
2023-01-10T10:58:04.499Z,6.40
2023-01-10T11:00:32.924Z,6.50
2023-01-10T11:03:07.187Z,6.70
2023-01-10T11:05:39.834Z,6.30
2023-01-10T11:08:11.084Z,6.30
2023-01-10T11:10:40.134Z,6.30
2023-01-10T11:13:18.829Z,6.30
2023-01-10T11:15:48.317Z,6.40
2023-01-10T11:18:20.587Z,6.50
2023-01-10T11:20:49.054Z,6.40
2023-01-10T11:23:26.357Z,6.20
2023-01-10T11:25:54.554Z,6.30
2023-01-10T11:28:27.132Z,6.50
2023-01-10T11:30:55.631Z,6.30
2023-01-10T11:33:31.544Z,6.10
2023-01-10T11:36:02.536Z,6.20
2023-01-10T11:38:31.887Z,6.10
2023-01-10T11:41:01.877Z,6.20
2023-01-10T11:43:34.047Z,6.30
2023-01-10T11:46:04.368Z,6.30
2023-01-10T11:49:05.021Z,6.40
2023-01-10T11:51:37.291Z,6.90
2023-01-10T11:54:07.931Z,6.30
2023-01-10T11:56:39.839Z,6.50
2023-01-10T11:59:13.175Z,6.30
2023-01-10T12:01:45.356Z,6.30
2023-01-10T12:04:17.303Z,6.20
2023-01-10T12:06:46.965Z,6.40
2023-01-10T12:09:43.389Z,6.60
2023-01-10T12:12:22.814Z,6.60
2023-01-10T12:14:51.447Z,6.50
2023-01-10T12:17:24.095Z,6.60
2023-01-10T12:19:55.446Z,6.60
2023-01-10T12:22:30.865Z,6.60
2023-01-10T12:25:00.935Z,6.70
2023-01-10T12:27:30.103Z,6.80
2023-01-10T12:30:04.595Z,6.80
2023-01-10T12:32:40.352Z,6.80
2023-01-10T12:35:16.571Z,6.90
2023-01-10T12:37:49.334Z,6.80
2023-01-10T12:40:22.433Z,7.00
2023-01-10T12:43:13.593Z,6.90
2023-01-10T12:45:47.258Z,6.80
2023-01-10T12:48:21.036Z,6.90
2023-01-10T12:50:54.869Z,6.90
2023-01-10T12:53:31.325Z,7.00
2023-01-10T12:56:04.266Z,7.00
2023-01-10T12:58:38.410Z,6.90
2023-01-10T13:01:08.424Z,6.70
2023-01-10T13:03:37.159Z,6.80
2023-01-10T13:06:06.735Z,6.80
2023-01-10T13:08:36.632Z,6.90
2023-01-10T13:11:05.626Z,6.80
2023-01-10T13:13:36.101Z,7.10
2023-01-10T13:16:29.315Z,6.90
2023-01-10T13:19:02.479Z,6.70
2023-01-10T13:21:33.050Z,6.80
2023-01-10T13:24:03.314Z,6.60
2023-01-10T13:26:46.999Z,6.60
2023-01-10T13:29:20.562Z,6.60
2023-01-10T13:31:49.808Z,6.80
2023-01-10T13:34:20.088Z,6.80
2023-01-10T13:36:56.756Z,6.80
2023-01-10T13:39:28.989Z,6.80
2023-01-10T13:42:45.840Z,6.80
2023-01-10T13:45:23.563Z,6.90
2023-01-10T13:48:25.482Z,6.80
2023-01-10T13:51:08.852Z,6.80
2023-01-10T13:54:02.564Z,6.70
2023-01-10T13:56:32.905Z,6.90
2023-01-10T13:59:19.150Z,6.80
2023-01-10T14:02:10.322Z,6.80
2023-01-10T14:04:45.738Z,6.80
2023-01-10T14:07:23.691Z,6.60
2023-01-10T14:09:58.996Z,6.60
2023-01-10T14:12:30.924Z,6.60
2023-01-10T14:15:03.669Z,6.60
2023-01-10T14:17:33.476Z,6.70
2023-01-10T14:20:15.202Z,6.80
2023-01-10T14:22:57.590Z,6.80
2023-01-10T14:25:27.745Z,6.70
2023-01-10T14:27:56.962Z,6.50
2023-01-10T14:30:28.206Z,6.50
2023-01-10T14:32:58.309Z,6.60
2023-01-10T14:35:31.170Z,6.50
2023-01-10T14:38:02.567Z,6.60
2023-01-10T14:40:40.786Z,6.50
2023-01-10T14:43:12.949Z,6.60
2023-01-10T14:45:45.913Z,6.50
2023-01-10T14:48:31.680Z,6.90
2023-01-10T14:51:20.960Z,6.80
2023-01-10T14:53:55.970Z,6.50
2023-01-10T14:56:26.760Z,6.60
2023-01-10T14:58:54.662Z,6.60
2023-01-10T15:01:26.085Z,6.80
2023-01-10T15:03:55.007Z,6.60
2023-01-10T15:06:24.532Z,6.80
2023-01-10T15:08:58.019Z,6.80
2023-01-10T15:11:27.508Z,6.70
2023-01-10T15:14:00.408Z,6.80
2023-01-10T15:16:31.376Z,6.80
2023-01-10T15:18:59.270Z,6.70
2023-01-10T15:21:27.195Z,6.70
2023-01-10T15:23:54.978Z,6.60
2023-01-10T15:26:33.235Z,6.70
2023-01-10T15:29:10.703Z,6.70
2023-01-10T15:31:40.315Z,6.60
2023-01-10T15:34:10.293Z,6.50
2023-01-10T15:36:44.038Z,6.40
2023-01-10T15:39:19.959Z,6.60
2023-01-10T15:41:49.855Z,6.50
2023-01-10T15:44:24.010Z,6.50
2023-01-10T15:46:55.907Z,6.30
2023-01-10T15:49:25.451Z,6.40
2023-01-10T15:51:53.427Z,6.50
2023-01-10T15:54:31.254Z,6.30
2023-01-10T15:57:06.610Z,6.20
2023-01-10T15:59:38.180Z,6.30
2023-01-10T16:02:21.712Z,6.20
2023-01-10T16:04:51.304Z,6.30
2023-01-10T16:07:22.848Z,6.40
2023-01-10T16:09:57.431Z,6.20
2023-01-10T16:12:51.480Z,6.40
2023-01-10T16:15:22.353Z,6.20
2023-01-10T16:17:50.786Z,6.30
2023-01-10T16:20:20.610Z,6.30
2023-01-10T16:22:49.864Z,6.30
2023-01-10T16:25:19.859Z,6.20
2023-01-10T16:27:49.290Z,6.10
2023-01-10T16:30:24.113Z,6.00
2023-01-10T16:32:52.052Z,6.10
2023-01-10T16:35:20.592Z,6.20
2023-01-10T16:37:48.804Z,6.10
2023-01-10T16:40:22.463Z,6.00
2023-01-10T16:43:08.963Z,6.10
2023-01-10T16:45:36.745Z,6.20
2023-01-10T16:48:04.773Z,6.00
2023-01-10T16:50:32.509Z,6.00
2023-01-10T16:53:00.740Z,6.10
2023-01-10T16:55:37.578Z,6.20
2023-01-10T16:58:06.633Z,5.90
2023-01-10T17:00:34.749Z,6.10
2023-01-10T17:03:05.696Z,5.90
2023-01-10T17:05:35.879Z,6.20
2023-01-10T17:08:04.304Z,6.10
2023-01-10T17:10:35.233Z,6.00
2023-01-10T17:13:04.320Z,6.10
2023-01-10T17:15:34.039Z,6.00
2023-01-10T17:18:01.807Z,6.00
2023-01-10T17:20:30.688Z,6.00
2023-01-10T17:22:58.608Z,6.00
2023-01-10T17:25:26.451Z,6.00
2023-01-10T17:27:54.193Z,5.90
2023-01-10T17:30:22.018Z,5.90
2023-01-10T17:32:51.098Z,5.90
2023-01-10T17:35:19.921Z,5.80
2023-01-10T17:37:50.022Z,6.00
2023-01-10T17:40:18.100Z,6.00
2023-01-10T17:42:46.149Z,5.80
2023-01-10T17:45:13.930Z,5.90
2023-01-10T17:47:41.708Z,5.80
2023-01-10T17:50:11.210Z,5.90
2023-01-10T17:52:39.115Z,5.60
2023-01-10T17:55:07.934Z,5.60
2023-01-10T17:57:38.085Z,5.80
2023-01-10T18:00:07.170Z,5.80
2023-01-10T18:02:35.059Z,5.60
2023-01-10T18:05:02.959Z,5.60
2023-01-10T18:07:32.105Z,5.60
2023-01-10T18:09:59.837Z,5.70
2023-01-10T18:12:27.620Z,5.50
2023-01-10T18:14:55.352Z,5.60
2023-01-10T18:17:23.178Z,5.70
2023-01-10T18:19:50.960Z,5.50
2023-01-10T18:22:36.050Z,5.50
2023-01-10T18:25:05.827Z,5.40
2023-01-10T18:27:33.656Z,5.50
2023-01-10T18:30:01.416Z,5.40
2023-01-10T18:32:29.229Z,5.40
2023-01-10T18:34:56.988Z,5.40
2023-01-10T18:37:24.763Z,5.50
2023-01-10T18:39:52.484Z,5.30
2023-01-10T18:42:21.568Z,5.40
2023-01-10T18:44:49.329Z,5.30
2023-01-10T18:47:17.110Z,5.40
2023-01-10T18:49:44.843Z,5.30
2023-01-10T18:52:12.593Z,5.20
2023-01-10T18:54:40.373Z,5.30
2023-01-10T18:57:08.121Z,5.60
2023-01-10T18:59:39.561Z,5.00
2023-01-10T19:02:11.136Z,5.40
2023-01-10T19:04:38.917Z,5.30
2023-01-10T19:07:06.770Z,5.00
2023-01-10T19:09:36.730Z,5.10
2023-01-10T19:12:04.631Z,5.30
2023-01-10T19:14:32.377Z,5.40
2023-01-10T19:17:01.473Z,5.30
2023-01-10T19:19:29.235Z,5.20
2023-01-10T19:21:57.170Z,5.20
2023-01-10T19:24:27.496Z,5.10
2023-01-10T19:26:55.819Z,5.00
2023-01-10T19:29:24.274Z,5.00
2023-01-10T19:31:52.633Z,5.20
2023-01-10T19:34:22.011Z,5.10
2023-01-10T19:36:49.768Z,5.00
2023-01-10T19:39:17.598Z,5.00
2023-01-10T19:41:45.352Z,5.20
2023-01-10T19:44:15.979Z,5.00
2023-01-10T19:46:44.143Z,5.10
2023-01-10T19:49:17.577Z,5.10
2023-01-10T19:51:50.997Z,4.90
2023-01-10T19:54:19.448Z,5.00
2023-01-10T19:56:47.271Z,4.90
2023-01-10T19:59:15.062Z,5.10
2023-01-10T20:01:43.063Z,5.00
2023-01-10T20:04:11.178Z,5.00
2023-01-10T20:06:41.015Z,4.90
2023-01-10T20:09:12.970Z,5.00
2023-01-10T20:11:42.857Z,5.00
2023-01-10T20:14:14.479Z,4.90
2023-01-10T20:16:42.688Z,4.80
2023-01-10T20:19:12.077Z,4.80
2023-01-10T20:21:41.469Z,4.90
2023-01-10T20:24:12.918Z,4.80
2023-01-10T20:26:41.208Z,4.80
2023-01-10T20:29:09.301Z,4.80
2023-01-10T20:31:37.341Z,4.80
2023-01-10T20:34:05.165Z,4.90
2023-01-10T20:36:33.216Z,4.90
2023-01-10T20:39:00.976Z,5.00
2023-01-10T20:41:31.497Z,4.70
2023-01-10T20:43:59.969Z,5.00
2023-01-10T20:46:30.652Z,4.70
2023-01-10T20:49:02.176Z,4.80
2023-01-10T20:51:32.500Z,4.60
2023-01-10T20:54:01.104Z,4.80
2023-01-10T20:56:31.941Z,4.70
2023-01-10T20:58:59.862Z,4.70
2023-01-10T21:01:34.580Z,4.70
2023-01-10T21:04:03.640Z,4.70
2023-01-10T21:06:31.442Z,4.80
2023-01-10T21:09:00.408Z,4.80
2023-01-10T21:11:29.692Z,4.70
2023-01-10T21:13:58.257Z,4.70
2023-01-10T21:16:26.186Z,4.70
2023-01-10T21:18:53.968Z,4.80
2023-01-10T21:21:23.325Z,4.80
2023-01-10T21:23:51.486Z,4.70
2023-01-10T21:26:19.220Z,4.60
2023-01-10T21:28:48.387Z,4.70
2023-01-10T21:31:18.080Z,4.70
2023-01-10T21:33:46.483Z,4.80
2023-01-10T21:36:14.341Z,4.70
2023-01-10T21:38:42.401Z,4.80
2023-01-10T21:41:13.072Z,4.80
2023-01-10T21:43:44.196Z,4.90
2023-01-10T21:46:13.344Z,4.80
2023-01-10T21:48:41.097Z,4.90
2023-01-10T21:51:08.827Z,4.80
2023-01-10T21:53:37.099Z,4.70
2023-01-10T21:56:05.236Z,5.00
2023-01-10T21:58:32.968Z,4.90
2023-01-10T22:01:00.719Z,4.80
2023-01-10T22:03:31.213Z,4.80
2023-01-10T22:05:58.987Z,4.80
2023-01-10T22:08:26.734Z,4.90
2023-01-10T22:10:54.545Z,5.00
2023-01-10T22:13:22.270Z,4.80
2023-01-10T22:15:50.036Z,4.90
2023-01-10T22:18:17.785Z,4.80
2023-01-10T22:20:47.495Z,5.00
2023-01-10T22:23:15.284Z,4.90
2023-01-10T22:25:43.059Z,4.80
2023-01-10T22:28:10.795Z,4.80
2023-01-10T22:30:38.542Z,4.80
2023-01-10T22:33:06.311Z,4.80
2023-01-10T22:35:35.092Z,4.80
2023-01-10T22:38:04.172Z,4.90
2023-01-10T22:40:31.943Z,4.90
2023-01-10T22:42:59.700Z,4.80
2023-01-10T22:45:27.534Z,4.70
2023-01-10T22:47:55.309Z,4.70
2023-01-10T22:50:23.054Z,4.80
2023-01-10T22:52:51.632Z,4.80
2023-01-10T22:55:20.742Z,4.80
2023-01-10T22:57:48.529Z,4.90
2023-01-10T23:00:17.000Z,4.80
2023-01-10T23:02:44.824Z,4.90
2023-01-10T23:05:12.752Z,4.80
2023-01-10T23:07:40.488Z,4.90
2023-01-10T23:10:24.418Z,4.90
2023-01-10T23:12:57.843Z,4.80
2023-01-10T23:15:26.089Z,4.80
2023-01-10T23:17:53.855Z,4.80
2023-01-10T23:20:21.939Z,4.90
2023-01-10T23:22:49.714Z,4.90
2023-01-10T23:25:17.802Z,4.80
2023-01-10T23:27:45.602Z,5.00
2023-01-10T23:30:15.176Z,4.90
2023-01-10T23:32:43.046Z,5.00
2023-01-10T23:35:11.149Z,4.90
2023-01-10T23:37:38.904Z,4.90
2023-01-10T23:40:07.859Z,4.90
2023-01-10T23:42:35.608Z,5.10
2023-01-10T23:45:03.396Z,5.00
2023-01-10T23:47:32.511Z,4.90
2023-01-10T23:50:00.257Z,5.00
2023-01-10T23:52:28.057Z,4.90
2023-01-10T23:54:55.854Z,5.00
2023-01-10T23:57:23.626Z,4.90
2023-01-10T23:59:51.376Z,5.00
